Time;durP1;ratioP1;P1;durP2;ratioP2;P2;SDS_P1;SDS_P2;PMS_P1;PMS_P2;Temp;Humidity;BMP_temperature;BMP_pressure;BME280_temperature;BME280_humidity;BME280_pressure;Samples;Min_cycle;Max_cycle;Signal;HPM_P1;HPM_P2
2022/07/17 06:21:55;;;;;;;;;;;16.20;40.50;;;;;;5097176;27;20038;-73
2022/07/17 06:24:21;;;;;;;;;;;16.20;40.30;;;;;;5131644;27;19923;-71
2022/07/17 06:26:48;;;;;;;;;;;16.20;41.30;;;;;;5122079;27;19911;-71
2022/07/17 06:29:14;;;;;;;;;;;16.20;40.40;;;;;;5130347;27;19964;-71
2022/07/17 06:31:41;;;;;;;;;;;16.30;39.40;;;;;;5113085;27;20007;-72
2022/07/17 06:34:07;;;;;;;;;;;16.20;39.50;;;;;;5112836;27;19982;-72
2022/07/17 06:36:34;;;;;;;;;;;16.20;39.20;;;;;;5132941;27;19907;-72
2022/07/17 06:39:00;;;;;;;;;;;16.20;39.00;;;;;;5132560;27;19907;-72
2022/07/17 06:41:27;;;;;;;;;;;16.20;38.60;;;;;;5131324;27;20015;-72
2022/07/17 06:43:54;;;;;;;;;;;16.20;38.90;;;;;;5133198;27;19907;-70
2022/07/17 06:46:20;;;;;;;;;;;16.10;39.00;;;;;;5124060;27;20088;-72
2022/07/17 06:48:51;;;;;;;;;;;16.10;39.00;;;;;;5125423;27;19911;-72
2022/07/17 06:51:18;;;;;;;;;;;16.00;39.30;;;;;;5124488;27;20363;-72
2022/07/17 06:53:44;;;;;;;;;;;16.00;39.30;;;;;;5126249;27;20470;-72
2022/07/17 06:56:11;;;;;;;;;;;16.00;39.60;;;;;;5130417;27;19908;-72
2022/07/17 06:58:37;;;;;;;;;;;16.00;38.90;;;;;;5119721;27;19996;-72
2022/07/17 07:01:04;;;;;;;;;;;15.90;39.40;;;;;;5129271;27;19915;-72
2022/07/17 07:03:31;;;;;;;;;;;15.80;39.90;;;;;;5121740;27;19926;-72
2022/07/17 07:05:58;;;;;;;;;;;15.80;38.90;;;;;;5121352;27;19922;-72
2022/07/17 07:08:25;;;;;;;;;;;15.80;39.00;;;;;;5127290;27;20380;-72
2022/07/17 07:10:52;;;;;;;;;;;15.80;39.10;;;;;;5125679;27;20391;-72
2022/07/17 07:13:18;;;;;;;;;;;15.80;39.00;;;;;;5125007;27;19939;-72
2022/07/17 07:15:45;;;;;;;;;;;15.80;38.90;;;;;;5128252;27;19911;-73
2022/07/17 07:18:11;;;;;;;;;;;15.70;39.30;;;;;;5122199;27;19919;-69
2022/07/17 11:27:43;;;;;;;;;;;14.30;51.40;;;;;;5120272;27;19976;-77
2022/07/17 11:30:11;;;;;;;;;;;14.30;51.10;;;;;;5118620;27;19928;-78
2022/07/17 11:32:38;;;;;;;;;;;14.30;51.80;;;;;;5131445;27;19915;-75
2022/07/17 11:35:15;;;;;;;;;;;14.30;51.70;;;;;;5092829;27;19926;-76
2022/07/17 11:37:42;;;;;;;;;;;14.30;51.50;;;;;;5143549;27;19911;-78
2022/07/17 11:40:09;;;;;;;;;;;14.30;52.40;;;;;;5114523;27;20379;-76
2022/07/17 11:42:35;;;;;;;;;;;14.30;52.20;;;;;;5112144;27;19961;-80
2022/07/17 11:45:02;;;;;;;;;;;14.30;52.30;;;;;;5110041;27;19926;-84
2022/07/17 11:47:28;;;;;;;;;;;14.30;52.30;;;;;;5131468;27;20351;-82
2022/07/17 11:50:12;;;;;;;;;;;14.30;52.30;;;;;;5111518;27;19930;-75
2022/07/17 11:52:42;;;;;;;;;;;14.30;52.60;;;;;;5129149;27;19919;-78
2022/07/17 11:55:09;;;;;;;;;;;14.30;52.50;;;;;;5130887;27;19916;-77
2022/07/17 11:57:41;;;;;;;;;;;14.30;52.90;;;;;;5131757;27;19929;-74
2022/07/17 12:00:08;;;;;;;;;;;14.30;53.00;;;;;;5136328;27;19915;-75
2022/07/17 12:02:35;;;;;;;;;;;14.30;53.00;;;;;;5133744;27;20028;-77
2022/07/17 12:05:02;;;;;;;;;;;14.30;53.40;;;;;;5124640;27;19915;-77
2022/07/17 12:07:40;;;;;;;;;;;14.30;53.20;;;;;;5131906;27;20292;-77
2022/07/17 12:10:17;;;;;;;;;;;14.30;53.50;;;;;;5130350;27;19920;-77
2022/07/17 12:13:00;;;;;;;;;;;14.30;53.90;;;;;;5128403;27;20007;-76
2022/07/17 12:15:40;;;;;;;;;;;14.30;54.80;;;;;;5125477;27;19911;-77
2022/07/17 12:18:09;;;;;;;;;;;14.30;54.20;;;;;;5137346;27;19965;-77
2022/07/17 12:20:45;;;;;;;;;;;14.30;54.10;;;;;;5131743;27;20464;-77
2022/07/17 12:23:50;;;;;;;;;;;14.30;54.60;;;;;;5133712;27;19912;-75
2022/07/17 12:26:19;;;;;;;;;;;14.30;54.70;;;;;;5071656;28;19927;-75
2022/07/17 12:28:45;;;;;;;;;;;14.30;54.70;;;;;;5071633;28;19909;-75
2022/07/17 12:31:13;;;;;;;;;;;14.30;55.00;;;;;;5100304;27;19919;-75
2022/07/17 12:33:40;;;;;;;;;;;14.30;55.20;;;;;;5135152;27;19960;-76
2022/07/17 12:36:06;;;;;;;;;;;14.20;55.80;;;;;;5117064;27;20276;-76
2022/07/17 12:38:33;;;;;;;;;;;14.20;56.00;;;;;;5135341;27;19916;-76
2022/07/17 12:41:00;;;;;;;;;;;14.20;56.30;;;;;;5134914;27;20323;-77
2022/07/17 12:43:26;;;;;;;;;;;14.20;56.20;;;;;;5125611;27;19935;-76
2022/07/17 12:45:53;;;;;;;;;;;14.20;56.50;;;;;;5130633;27;20276;-77
2022/07/17 12:48:19;;;;;;;;;;;14.20;56.90;;;;;;5133106;27;19912;-76
2022/07/17 12:50:46;;;;;;;;;;;14.20;56.70;;;;;;5135027;27;19927;-76
2022/07/17 12:53:13;;;;;;;;;;;14.20;56.60;;;;;;5132662;27;19999;-76
2022/07/17 12:55:39;;;;;;;;;;;14.20;56.60;;;;;;5134712;27;19912;-77
2022/07/17 12:58:06;;;;;;;;;;;14.20;56.70;;;;;;5133232;27;19911;-76
2022/07/17 13:00:32;;;;;;;;;;;14.20;56.50;;;;;;5131424;27;19911;-76
2022/07/17 13:02:59;;;;;;;;;;;14.20;56.60;;;;;;5131208;27;19945;-76
2022/07/17 13:05:26;;;;;;;;;;;14.20;56.80;;;;;;5133300;27;19922;-76
2022/07/17 13:07:52;;;;;;;;;;;14.20;56.60;;;;;;5133769;27;19916;-76
2022/07/17 13:10:19;;;;;;;;;;;14.20;56.50;;;;;;5131411;27;19956;-76
2022/07/17 13:12:45;;;;;;;;;;;14.20;56.60;;;;;;5133815;27;20006;-76
2022/07/17 13:15:12;;;;;;;;;;;14.30;56.50;;;;;;5133751;27;19961;-76
2022/07/17 13:17:38;;;;;;;;;;;14.20;56.60;;;;;;5130299;27;19912;-76
2022/07/17 13:20:06;;;;;;;;;;;14.30;57.00;;;;;;5134538;27;19964;-77
2022/07/17 13:22:33;;;;;;;;;;;14.20;56.80;;;;;;5132788;27;19911;-76
2022/07/17 13:24:59;;;;;;;;;;;14.20;56.70;;;;;;5132165;27;20018;-76
2022/07/17 13:27:26;;;;;;;;;;;14.30;57.00;;;;;;5133432;27;19920;-77
2022/07/17 13:29:52;;;;;;;;;;;14.30;56.90;;;;;;5131283;27;19919;-76
2022/07/17 13:32:19;;;;;;;;;;;14.20;57.00;;;;;;5129207;27;19911;-77
2022/07/17 13:34:45;;;;;;;;;;;14.20;57.40;;;;;;5133337;27;20002;-76
2022/07/17 13:37:12;;;;;;;;;;;14.30;57.60;;;;;;5134113;27;19907;-77
2022/07/17 13:39:39;;;;;;;;;;;14.20;57.60;;;;;;5132953;27;19950;-76
2022/07/17 13:42:05;;;;;;;;;;;14.30;57.90;;;;;;5130295;27;19912;-77
2022/07/17 13:44:32;;;;;;;;;;;14.20;57.90;;;;;;5131679;27;19918;-77
2022/07/17 13:46:58;;;;;;;;;;;14.20;58.60;;;;;;5131976;27;19915;-77
2022/07/17 13:49:25;;;;;;;;;;;14.20;58.60;;;;;;5133872;27;20014;-77
2022/07/17 13:51:52;;;;;;;;;;;14.20;58.70;;;;;;5133274;27;19911;-77
2022/07/17 13:54:18;;;;;;;;;;;14.20;59.10;;;;;;5132719;27;19911;-77
2022/07/17 13:56:45;;;;;;;;;;;14.20;59.20;;;;;;5133999;27;19981;-77
2022/07/17 13:59:12;;;;;;;;;;;14.20;59.40;;;;;;5124882;27;19923;-77
2022/07/17 17:25:59;;;;;;;;;;;13.40;58.70;;;;;;5123726;27;20075;-76
2022/07/17 17:28:25;;;;;;;;;;;13.30;60.40;;;;;;5127370;27;20361;-76
2022/07/17 17:30:52;;;;;;;;;;;13.30;61.80;;;;;;5112086;27;19927;-77
2022/07/17 17:33:19;;;;;;;;;;;13.30;62.80;;;;;;5117187;27;19911;-77
2022/07/17 17:35:45;;;;;;;;;;;13.20;61.70;;;;;;5116539;27;19912;-77
2022/07/17 17:38:12;;;;;;;;;;;13.10;60.90;;;;;;5116546;27;19915;-77
2022/07/17 17:40:39;;;;;;;;;;;13.10;60.00;;;;;;5103640;27;19915;-76
2022/07/17 17:43:05;;;;;;;;;;;13.10;60.10;;;;;;5122251;27;19918;-76
2022/07/17 17:45:32;;;;;;;;;;;13.00;61.20;;;;;;5115523;27;19911;-77
2022/07/17 17:47:59;;;;;;;;;;;13.00;60.10;;;;;;5106265;27;19923;-76
2022/07/17 17:50:25;;;;;;;;;;;13.00;60.80;;;;;;5131406;27;20386;-76
2022/07/17 17:52:52;;;;;;;;;;;12.90;60.50;;;;;;5114804;27;20465;-77
2022/07/17 17:55:18;;;;;;;;;;;12.90;61.80;;;;;;5112834;27;19911;-76
2022/07/17 17:57:46;;;;;;;;;;;12.90;60.60;;;;;;5125626;27;19916;-76
2022/07/17 18:00:14;;;;;;;;;;;12.90;61.00;;;;;;5125421;27;20395;-77
2022/07/17 18:02:40;;;;;;;;;;;12.80;61.70;;;;;;5104563;27;19912;-77
2022/07/17 18:05:07;;;;;;;;;;;12.70;62.40;;;;;;5117599;27;19964;-77
2022/07/17 18:07:34;;;;;;;;;;;12.70;62.00;;;;;;5112459;27;19933;-77
2022/07/17 18:10:00;;;;;;;;;;;12.70;62.90;;;;;;5101845;28;19923;-76
2022/07/17 18:12:27;;;;;;;;;;;12.60;63.40;;;;;;5108003;27;19911;-76
2022/07/17 18:14:53;;;;;;;;;;;12.50;64.40;;;;;;5107728;27;19916;-76
2022/07/17 18:17:20;;;;;;;;;;;12.40;64.60;;;;;;5104498;27;19912;-76
2022/07/17 18:19:46;;;;;;;;;;;12.40;64.60;;;;;;5107615;27;19950;-76
2022/07/17 18:22:13;;;;;;;;;;;12.30;64.90;;;;;;5126837;27;19911;-76
2022/07/17 18:24:40;;;;;;;;;;;12.20;64.80;;;;;;5111416;27;19964;-76
2022/07/17 18:27:09;;;;;;;;;;;12.20;64.70;;;;;;5091363;28;20458;-76
2022/07/17 18:29:36;;;;;;;;;;;12.20;64.80;;;;;;5126628;27;19915;-76
2022/07/17 18:32:04;;;;;;;;;;;12.20;64.50;;;;;;5124587;27;19911;-76
2022/07/17 18:34:34;;;;;;;;;;;12.20;64.10;;;;;;5095785;27;19961;-76
2022/07/17 18:37:00;;;;;;;;;;;12.30;64.10;;;;;;5107388;27;19956;-76
2022/07/17 18:39:27;;;;;;;;;;;12.30;63.90;;;;;;5124534;27;19920;-76
2022/07/17 18:41:53;;;;;;;;;;;12.30;63.80;;;;;;5107894;27;19919;-76
2022/07/17 18:44:20;;;;;;;;;;;12.20;63.90;;;;;;5085814;28;19915;-77
2022/07/17 18:46:47;;;;;;;;;;;12.20;64.30;;;;;;5122433;27;19951;-76
2022/07/17 18:49:13;;;;;;;;;;;12.20;64.40;;;;;;5102048;28;19930;-76
2022/07/17 18:51:40;;;;;;;;;;;12.20;64.90;;;;;;5107265;28;20052;-77
2022/07/17 18:54:07;;;;;;;;;;;12.20;65.80;;;;;;5113916;27;19959;-76
2022/07/17 21:44:50;;;;;;;;;;;11.20;74.50;;;;;;5105430;28;19935;-90
2022/07/17 21:47:16;;;;;;;;;;;11.30;74.30;;;;;;5059810;28;19924;-79
2022/07/17 21:49:43;;;;;;;;;;;11.40;74.30;;;;;;5091831;28;19959;-80
2022/07/17 21:52:09;;;;;;;;;;;11.40;75.20;;;;;;5092014;28;19925;-80
2022/07/17 21:54:36;;;;;;;;;;;11.40;74.50;;;;;;5091998;28;20057;-80
2022/07/17 21:57:02;;;;;;;;;;;11.40;75.00;;;;;;5089442;28;20188;-80
2022/07/17 21:59:29;;;;;;;;;;;11.50;73.80;;;;;;5085947;28;20354;-80
2022/07/17 22:01:56;;;;;;;;;;;11.50;73.90;;;;;;5085077;28;20341;-80
2022/07/17 22:04:22;;;;;;;;;;;11.50;74.00;;;;;;5092295;28;19951;-79
2022/07/17 22:06:49;;;;;;;;;;;11.60;74.10;;;;;;5089469;28;20230;-79
2022/07/17 22:09:16;;;;;;;;;;;11.60;73.60;;;;;;5091784;28;20467;-80
2022/07/17 22:11:42;;;;;;;;;;;11.70;73.60;;;;;;5091366;28;20015;-79
2022/07/17 22:14:09;;;;;;;;;;;11.70;73.50;;;;;;5087864;28;19920;-85
2022/07/17 22:16:35;;;;;;;;;;;11.70;74.00;;;;;;5089763;28;19912;-81
2022/07/17 22:19:02;;;;;;;;;;;11.70;73.40;;;;;;5075676;28;19917;-81
2022/07/17 22:21:29;;;;;;;;;;;11.70;73.30;;;;;;5089047;28;19913;-81
2022/07/17 22:23:55;;;;;;;;;;;11.70;73.30;;;;;;5091789;28;20005;-80
2022/07/17 22:26:22;;;;;;;;;;;11.70;73.30;;;;;;5091340;28;19926;-81
2022/07/17 22:28:49;;;;;;;;;;;11.80;73.50;;;;;;5092165;28;19997;-81
2022/07/17 22:31:15;;;;;;;;;;;11.80;72.60;;;;;;5092388;28;19916;-81
2022/07/17 22:33:42;;;;;;;;;;;11.80;72.60;;;;;;5092339;28;20270;-81
2022/07/17 22:36:09;;;;;;;;;;;11.90;72.20;;;;;;5092334;28;19935;-81
2022/07/17 22:38:35;;;;;;;;;;;11.90;71.80;;;;;;5092129;28;20263;-81
2022/07/17 22:41:02;;;;;;;;;;;12.00;72.20;;;;;;5092152;28;19958;-81
2022/07/17 22:43:28;;;;;;;;;;;12.00;72.10;;;;;;5091777;28;19919;-81
2022/07/17 22:45:55;;;;;;;;;;;12.00;71.60;;;;;;5091836;28;19976;-81
2022/07/17 22:48:23;;;;;;;;;;;12.00;70.90;;;;;;5092097;28;19912;-81
2022/07/17 22:50:49;;;;;;;;;;;12.10;70.80;;;;;;5091930;28;19923;-80
2022/07/17 22:53:16;;;;;;;;;;;12.10;70.20;;;;;;5092118;28;19908;-80
2022/07/17 22:55:42;;;;;;;;;;;12.20;70.20;;;;;;5091910;28;19972;-81
2022/07/17 22:58:09;;;;;;;;;;;12.20;70.10;;;;;;5092067;28;19912;-81
2022/07/17 23:00:35;;;;;;;;;;;12.20;69.90;;;;;;5091921;28;19908;-81
2022/07/17 23:03:02;;;;;;;;;;;12.20;69.90;;;;;;5085130;28;19916;-81
2022/07/17 23:05:29;;;;;;;;;;;12.20;69.40;;;;;;5091778;28;19912;-81
2022/07/17 23:07:56;;;;;;;;;;;12.30;69.00;;;;;;5091419;28;20362;-81
2022/07/17 23:10:22;;;;;;;;;;;12.30;68.70;;;;;;5091439;28;19926;-81
2022/07/17 23:12:49;;;;;;;;;;;12.40;68.60;;;;;;5092066;28;19930;-81
2022/07/17 23:15:15;;;;;;;;;;;12.30;68.50;;;;;;5092167;28;20445;-81
2022/07/17 23:17:42;;;;;;;;;;;12.40;67.40;;;;;;5093961;28;19953;-81
2022/07/17 23:20:09;;;;;;;;;;;12.50;67.20;;;;;;5077875;28;19915;-80
2022/07/17 23:22:35;;;;;;;;;;;12.50;65.00;;;;;;5096420;28;19912;-80
2022/07/17 23:25:02;;;;;;;;;;;12.50;64.50;;;;;;5078032;28;19908;-80
2022/07/17 23:27:29;;;;;;;;;;;12.50;64.10;;;;;;5095986;28;19913;-80
2022/07/17 23:29:55;;;;;;;;;;;12.50;64.20;;;;;;5096059;28;19938;-81
2022/07/17 23:32:25;;;;;;;;;;;12.60;63.20;;;;;;5077914;28;19939;-81
2022/07/17 23:34:55;;;;;;;;;;;12.60;62.70;;;;;;5095694;28;19918;-81
2022/07/17 23:37:22;;;;;;;;;;;12.60;61.80;;;;;;5077707;28;19912;-80
2022/07/17 23:39:49;;;;;;;;;;;12.70;61.50;;;;;;5095788;28;19909;-80
2022/07/17 23:42:16;;;;;;;;;;;12.70;60.50;;;;;;5077256;28;20354;-81
